Dati Storici

Data ora Umidita' aria (%) Temperatura aria (°C) Rad globale (W/m²) Gonioanemometro (°) Tacoanemometro (m/s) Pioggia (mm)
14-10-2012 14:00 62.1 % 17.147 333.927 115.704 1.978 0
14-10-2012 13:50 60.5 % 17.627 338.821 41.277 1.117 0
14-10-2012 13:40 61.6 % 17.924 618.064 98.403 1.333 0
14-10-2012 13:30 63.7 % 17.074 449.976 85.541 2.036 0
14-10-2012 13:20 63.9 % 16.739 170.629 140.535 1.94 0
14-10-2012 13:10 64.6 % 17.517 743.016 116.569 1.138 0
14-10-2012 13:00 64.5 % 16.799 156.446 99.826 0.565 0
14-10-2012 12:50 63.8 % 16.992 242.836 36.41 0.953 0
14-10-2012 12:40 63 % 16.777 251.789 105.759 0.785 0
14-10-2012 12:30 62.1 % 16.856 276.768 73.791 0.545 0
14-10-2012 12:20 62.3 % 16.952 318.987 162.098 0.405 0
14-10-2012 12:10 61.7 % 16.816 300.9 89.068 1.303 0
14-10-2012 12:00 61.1 % 17.363 298.632 103.928 1.607 0
14-10-2012 11:50 60.5 % 16.763 665.417 103.559 0.992 0
14-10-2012 11:40 61.6 % 16.895 619.619 121.109 1.022 0
14-10-2012 11:30 63.1 % 17.18 623.884 83.714 1.849 0
14-10-2012 11:20 63.5 % 17.742 568.076 137.718 0.484 0
14-10-2012 11:10 64.7 % 17.188 444.812 32.985 0.665 0
14-10-2012 11:00 66.4 % 16.847 568.714 17.03 1.446 0
14-10-2012 10:50 67.3 % 16.215 371.434 27.885 0.611 0

I dati sono presentati in modo automatico a scopo informativo. In seguito a verifica i dati possono subire modifiche o essere invalidati e non riportati negli archivi definitivi.